Wetterdaten: Woche 26.08.19 - 01.09.19 (KW35)
Datum Zeit Temp. A. Pool Temp. Temp. 5cm Feuchte A. Luftdruck Regen Wind Richtung Sonnenschein ET UV Solar Taupunkt Windchill Windben Empfang
26.08.2019 00:00 20,6 C 23,3 C 19,3 C 85 % 1017,7 hPa 0,0 l/m 4,5 km/h (1 Bft) NO 0,00 h 0,000 mm 0,0 UV-I 0 W/m 17,9 C 20,6 C 6,6 km/h (2 Bft) 95,95 %
26.08.2019 01:00 19,2 C 23,3 C 17,6 C 89 % 1017,5 hPa 0,0 l/m 2,9 km/h (1 Bft) W-SW 0,00 h 0,025 mm 0,0 UV-I 0 W/m 17,2 C 19,2 C 4,4 km/h (1 Bft) 97,27 %
26.08.2019 02:00 18,1 C 23,3 C 17,0 C 91 % 1017,4 hPa 0,0 l/m 3,1 km/h (1 Bft) W-SW 0,00 h 0,000 mm 0,0 UV-I 0 W/m 16,7 C 18,1 C 4,3 km/h (1 Bft) 98,91 %
26.08.2019 03:00 17,8 C 23,3 C 16,7 C 91 % 1017,4 hPa 0,0 l/m 3,4 km/h (1 Bft) SW 0,00 h 0,000 mm 0,0 UV-I 0 W/m 16,3 C 17,8 C 4,9 km/h (1 Bft) 97,70 %
26.08.2019 04:00 17,2 C 23,3 C 16,0 C 92 % 1017,4 hPa 0,0 l/m 3,1 km/h (1 Bft) SW 0,00 h 0,000 mm 0,0 UV-I 0 W/m 15,9 C 17,2 C 4,6 km/h (1 Bft) 95,96 %
26.08.2019 05:00 16,6 C 23,3 C 15,6 C 93 % 1017,5 hPa 0,0 l/m 2,6 km/h (1 Bft) S-SW 0,00 h 0,000 mm 0,0 UV-I 0 W/m 15,6 C 16,6 C 4,0 km/h (1 Bft) 98,46 %
26.08.2019 06:00 16,2 C 23,3 C 15,5 C 94 % 1017,6 hPa 0,0 l/m 2,1 km/h (1 Bft) S-SW 0,13 h 0,000 mm 0,0 UV-I 21 W/m 15,3 C 16,2 C 3,2 km/h (1 Bft) 98,38 %
26.08.2019 07:00 17,1 C 23,1 C 17,5 C 94 % 1017,8 hPa 0,0 l/m 0,8 km/h (0 Bft) S-SW 0,67 h 0,026 mm 0,0 UV-I 118 W/m 16,1 C 17,1 C 1,5 km/h (1 Bft) 96,12 %
26.08.2019 08:00 19,2 C 23,0 C 20,6 C 88 % 1017,9 hPa 0,0 l/m 1,6 km/h (1 Bft) S-SW 1,00 h 0,076 mm 0,8 UV-I 280 W/m 17,2 C 19,2 C 3,2 km/h (1 Bft) 97,61 %
26.08.2019 09:00 21,1 C 23,1 C 23,6 C 83 % 1017,9 hPa 0,0 l/m 4,5 km/h (1 Bft) N 1,00 h 0,152 mm 1,6 UV-I 447 W/m 18,2 C 21,1 C 7,2 km/h (2 Bft) 98,34 %
26.08.2019 10:00 23,0 C 23,3 C 33,6 C 77 % 1017,8 hPa 0,0 l/m 6,6 km/h (2 Bft) O 1,00 h 0,280 mm 2,7 UV-I 590 W/m 18,8 C 22,7 C 10,8 km/h (2 Bft) 97,64 %
26.08.2019 11:00 24,7 C 23,3 C 35,7 C 73 % 1017,4 hPa 0,0 l/m 8,6 km/h (2 Bft) NO 1,00 h 0,381 mm 3,5 UV-I 697 W/m 19,6 C 24,1 C 13,3 km/h (3 Bft) 97,02 %
26.08.2019 12:00 25,7 C 23,7 C 37,6 C 68 % 1017,1 hPa 0,0 l/m 7,9 km/h (2 Bft) O-NO 1,00 h 0,457 mm 3,8 UV-I 726 W/m 19,4 C 25,3 C 13,2 km/h (3 Bft) 97,31 %
26.08.2019 13:00 27,2 C 23,9 C 38,6 C 62 % 1016,6 hPa 0,0 l/m 9,2 km/h (2 Bft) NO 1,00 h 0,483 mm 4,1 UV-I 735 W/m 19,2 C 26,7 C 15,1 km/h (3 Bft) 97,90 %
26.08.2019 14:00 28,4 C 24,3 C 38,7 C 57 % 1016,0 hPa 0,0 l/m 7,2 km/h (2 Bft) N-NO 1,00 h 0,533 mm 3,5 UV-I 684 W/m 19,1 C 28,2 C 12,6 km/h (3 Bft) 98,02 %
26.08.2019 15:00 29,3 C 24,4 C 38,4 C 54 % 1015,3 hPa 0,0 l/m 8,8 km/h (2 Bft) NO 1,00 h 0,508 mm 2,7 UV-I 585 W/m 18,9 C 29,0 C 13,8 km/h (3 Bft) 96,60 %
26.08.2019 16:00 30,0 C 24,8 C 36,8 C 52 % 1014,4 hPa 0,0 l/m 9,8 km/h (2 Bft) NO 1,00 h 0,457 mm 1,9 UV-I 508 W/m 19,0 C 29,7 C 14,9 km/h (3 Bft) 98,46 %
26.08.2019 17:00 29,6 C 25,0 C 31,6 C 51 % 1014,0 hPa 0,0 l/m 11,6 km/h (2 Bft) O-NO 0,80 h 0,432 mm 0,9 UV-I 302 W/m 18,5 C 29,2 C 17,6 km/h (3 Bft) 96,78 %
26.08.2019 18:00 28,3 C 25,0 C 28,1 C 55 % 1014,1 hPa 0,0 l/m 11,6 km/h (2 Bft) O 0,53 h 0,305 mm 0,4 UV-I 144 W/m 18,3 C 27,7 C 17,0 km/h (3 Bft) 96,61 %
26.08.2019 19:00 26,3 C 25,0 C 25,1 C 60 % 1014,4 hPa 0,0 l/m 13,4 km/h (3 Bft) O 0,48 h 0,178 mm 0,0 UV-I 37 W/m 17,9 C 25,1 C 19,6 km/h (3 Bft) 98,01 %
26.08.2019 20:00 24,3 C 24,5 C 22,5 C 63 % 1015,0 hPa 0,0 l/m 11,9 km/h (2 Bft) O 0,00 h 0,101 mm 0,0 UV-I 5 W/m 16,7 C 23,0 C 17,3 km/h (3 Bft) 98,05 %
26.08.2019 21:00 23,1 C 24,4 C 21,7 C 67 % 1015,5 hPa 0,0 l/m 9,8 km/h (2 Bft) O 0,00 h 0,076 mm 0,0 UV-I 0 W/m 16,7 C 22,1 C 15,0 km/h (3 Bft) 96,83 %
26.08.2019 22:00 22,4 C 24,4 C 21,3 C 71 % 1016,4 hPa 0,0 l/m 10,9 km/h (2 Bft) O 0,00 h 0,051 mm 0,0 UV-I 0 W/m 16,8 C 21,1 C 17,3 km/h (3 Bft) 97,10 %
26.08.2019 23:00 21,1 C 24,4 C 19,9 C 70 % 1017,2 hPa 0,0 l/m 5,4 km/h (1 Bft) W-SW 0,00 h 0,051 mm 0,0 UV-I 0 W/m 15,4 C 20,9 C 8,6 km/h (2 Bft) 97,20 %
27.08.2019 00:00 20,1 C 24,1 C 18,7 C 73 % 1016,8 hPa 0,0 l/m 2,1 km/h (1 Bft) W-SW 0,00 h 0,000 mm 0,0 UV-I 0 W/m 15,1 C 20,1 C 3,7 km/h (1 Bft) 97,56 %
27.08.2019 01:00 18,2 C 23,9 C 17,1 C 81 % 1016,0 hPa 0,0 l/m 3,2 km/h (1 Bft) S 0,00 h 0,025 mm 0,0 UV-I 0 W/m 14,9 C 18,2 C 5,1 km/h (1 Bft) 97,44 %
27.08.2019 02:00 17,5 C 23,9 C 15,8 C 84 % 1015,7 hPa 0,0 l/m 1,2 km/h (1 Bft) S-SW 0,00 h 0,026 mm 0,0 UV-I 0 W/m 14,9 C 17,5 C 2,2 km/h (1 Bft) 96,68 %
27.08.2019 03:00 16,9 C 23,9 C 15,9 C 88 % 1015,6 hPa 0,0 l/m 2,7 km/h (1 Bft) O-SO 0,00 h 0,000 mm 0,0 UV-I 0 W/m 14,9 C 16,9 C 4,3 km/h (1 Bft) 98,01 %
27.08.2019 04:00 16,7 C 23,9 C 16,1 C 90 % 1016,0 hPa 0,0 l/m 2,1 km/h (1 Bft) NO 0,00 h 0,000 mm 0,0 UV-I 0 W/m 15,0 C 16,7 C 3,3 km/h (1 Bft) 98,60 %
27.08.2019 05:00 16,7 C 23,9 C 15,7 C 90 % 1016,3 hPa 0,0 l/m 1,8 km/h (1 Bft) O-SO 0,00 h 0,000 mm 0,0 UV-I 0 W/m 15,0 C 16,7 C 3,0 km/h (1 Bft) 95,95 %
27.08.2019 06:00 16,5 C 23,6 C 16,5 C 91 % 1016,5 hPa 0,0 l/m 0,5 km/h (0 Bft) S-SW 0,58 h 0,000 mm 0,0 UV-I 37 W/m 15,0 C 16,5 C 1,5 km/h (1 Bft) 96,95 %
27.08.2019 07:00 18,0 C 23,3 C 19,3 C 90 % 1016,4 hPa 0,0 l/m 2,6 km/h (1 Bft) S-SW 0,98 h 0,025 mm 0,0 UV-I 163 W/m 16,4 C 18,0 C 4,0 km/h (1 Bft) 98,33 %
27.08.2019 08:00 19,0 C 23,5 C 20,1 C 89 % 1016,5 hPa 0,0 l/m 8,3 km/h (2 Bft) O 1,00 h 0,102 mm 0,7 UV-I 292 W/m 17,2 C 18,1 C 12,4 km/h (3 Bft) 96,80 %
27.08.2019 09:00 20,7 C 23,9 C 23,2 C 83 % 1016,7 hPa 0,0 l/m 7,4 km/h (2 Bft) O 1,00 h 0,178 mm 1,7 UV-I 462 W/m 17,8 C 20,2 C 11,8 km/h (2 Bft) 96,52 %
27.08.2019 10:00 22,6 C 23,9 C 32,6 C 78 % 1017,0 hPa 0,0 l/m 6,4 km/h (2 Bft) O-NO 1,00 h 0,279 mm 2,7 UV-I 585 W/m 18,6 C 22,4 C 10,6 km/h (2 Bft) 98,06 %
27.08.2019 11:00 24,1 C 23,9 C 37,8 C 72 % 1017,1 hPa 0,0 l/m 5,8 km/h (2 Bft) O-NO 1,00 h 0,381 mm 3,6 UV-I 694 W/m 18,6 C 23,9 C 10,4 km/h (2 Bft) 98,44 %
27.08.2019 12:00 25,5 C 24,2 C 39,0 C 67 % 1016,8 hPa 0,0 l/m 5,2 km/h (1 Bft) O-NO 1,00 h 0,457 mm 4,4 UV-I 748 W/m 18,7 C 25,3 C 8,9 km/h (2 Bft) 96,20 %
27.08.2019 13:00 27,0 C 24,4 C 39,6 C 58 % 1016,4 hPa 0,0 l/m 4,4 km/h (1 Bft) N-NO 1,00 h 0,483 mm 4,4 UV-I 752 W/m 18,0 C 26,9 C 7,4 km/h (2 Bft) 98,31 %
27.08.2019 14:00 28,3 C 25,0 C 40,3 C 51 % 1015,8 hPa 0,0 l/m 5,3 km/h (1 Bft) O 1,00 h 0,508 mm 4,0 UV-I 697 W/m 17,3 C 28,3 C 8,9 km/h (2 Bft) 97,19 %
27.08.2019 15:00 29,4 C 25,0 C 40,7 C 45 % 1015,2 hPa 0,0 l/m 5,6 km/h (1 Bft) S 1,00 h 0,508 mm 3,0 UV-I 608 W/m 16,2 C 29,3 C 9,5 km/h (2 Bft) 98,27 %
27.08.2019 16:00 29,8 C 25,3 C 37,3 C 42 % 1014,9 hPa 0,0 l/m 6,0 km/h (2 Bft) O-NO 1,00 h 0,457 mm 1,9 UV-I 478 W/m 15,6 C 29,7 C 9,6 km/h (2 Bft) 96,72 %
27.08.2019 17:00 29,8 C 25,6 C 30,8 C 43 % 1014,7 hPa 0,0 l/m 4,7 km/h (1 Bft) O 1,00 h 0,381 mm 0,9 UV-I 317 W/m 15,6 C 29,7 C 7,7 km/h (2 Bft) 98,57 %
27.08.2019 18:00 29,1 C 25,6 C 27,7 C 46 % 1014,4 hPa 0,0 l/m 3,3 km/h (1 Bft) NO 1,02 h 0,254 mm 0,5 UV-I 153 W/m 16,2 C 29,1 C 5,2 km/h (1 Bft) 96,64 %
27.08.2019 19:00 26,8 C 25,0 C 23,9 C 56 % 1014,4 hPa 0,0 l/m 2,2 km/h (1 Bft) O-SO 0,75 h 0,152 mm 0,0 UV-I 41 W/m 17,1 C 26,8 C 3,5 km/h (1 Bft) 97,48 %
27.08.2019 20:00 24,9 C 25,0 C 21,0 C 64 % 1014,9 hPa 0,0 l/m 4,9 km/h (1 Bft) O-SO 0,00 h 0,051 mm 0,0 UV-I 4 W/m 17,7 C 24,9 C 7,9 km/h (2 Bft) 97,62 %
27.08.2019 21:00 22,9 C 25,0 C 20,1 C 74 % 1015,1 hPa 0,0 l/m 3,5 km/h (1 Bft) S 0,00 h 0,051 mm 0,0 UV-I 0 W/m 17,9 C 22,9 C 5,4 km/h (1 Bft) 98,68 %
27.08.2019 22:00 20,8 C 25,0 C 18,0 C 81 % 1015,1 hPa 0,0 l/m 1,7 km/h (1 Bft) O-SO 0,00 h 0,025 mm 0,0 UV-I 0 W/m 17,4 C 20,8 C 2,8 km/h (1 Bft) 95,66 %
27.08.2019 23:00 19,6 C 25,0 C 17,2 C 85 % 1015,4 hPa 0,0 l/m 1,5 km/h (1 Bft) S-SW 0,00 h 0,000 mm 0,0 UV-I 0 W/m 17,1 C 19,6 C 2,3 km/h (1 Bft) 98,25 %
28.08.2019 00:00 18,4 C 25,0 C 16,6 C 89 % 1015,4 hPa 0,0 l/m 0,9 km/h (0 Bft) S-SW 0,00 h 0,000 mm 0,0 UV-I 0 W/m 16,5 C 18,4 C 1,6 km/h (1 Bft) 97,62 %
28.08.2019 01:00 17,7 C 24,7 C 15,9 C 90 % 1015,4 hPa 0,0 l/m 1,9 km/h (1 Bft) S-SO 0,00 h 0,000 mm 0,0 UV-I 0 W/m 16,1 C 17,7 C 3,0 km/h (1 Bft) 98,15 %
28.08.2019 02:00 16,9 C 24,4 C 15,4 C 92 % 1015,5 hPa 0,0 l/m 3,3 km/h (1 Bft) SW 0,00 h 0,000 mm 0,0 UV-I 0 W/m 15,6 C 16,9 C 4,5 km/h (1 Bft) 95,38 %
28.08.2019 03:00 16,5 C 24,4 C 14,9 C 92 % 1015,4 hPa 0,0 l/m 2,1 km/h (1 Bft) S-SW 0,00 h 0,000 mm 0,0 UV-I 0 W/m 15,1 C 16,5 C 3,0 km/h (1 Bft) 99,31 %
28.08.2019 04:00 15,8 C 24,4 C 14,4 C 92 % 1015,4 hPa 0,0 l/m 3,0 km/h (1 Bft) S-SW 0,00 h 0,000 mm 0,0 UV-I 0 W/m 14,5 C 15,8 C 4,3 km/h (1 Bft) 97,41 %
28.08.2019 05:00 15,5 C 24,4 C 14,0 C 92 % 1015,4 hPa 0,0 l/m 2,8 km/h (1 Bft) S-SW 0,00 h 0,000 mm 0,0 UV-I 0 W/m 14,3 C 15,5 C 3,9 km/h (1 Bft) 96,38 %
28.08.2019 06:00 15,3 C 24,1 C 14,6 C 92 % 1015,7 hPa 0,0 l/m 2,9 km/h (1 Bft) S-SW 0,57 h 0,000 mm 0,0 UV-I 28 W/m 14,0 C 15,3 C 4,2 km/h (1 Bft) 97,95 %
28.08.2019 07:00 16,8 C 23,9 C 17,4 C 88 % 1016,1 hPa 0,0 l/m 2,5 km/h (1 Bft) SW 1,00 h 0,025 mm 0,0 UV-I 135 W/m 14,8 C 16,8 C 4,1 km/h (1 Bft) 98,43 %
28.08.2019 08:00 19,3 C 23,9 C 20,7 C 84 % 1016,1 hPa 0,0 l/m 1,0 km/h (0 Bft) SW 1,00 h 0,077 mm 0,7 UV-I 254 W/m 16,4 C 19,3 C 2,2 km/h (1 Bft) 97,19 %
28.08.2019 09:00 21,2 C 23,9 C 24,4 C 80 % 1016,1 hPa 0,0 l/m 2,0 km/h (1 Bft) O-NO 1,00 h 0,152 mm 1,5 UV-I 374 W/m 17,6 C 21,2 C 3,7 km/h (1 Bft) 96,58 %
28.08.2019 10:00 22,6 C 24,2 C 28,0 C 75 % 1016,3 hPa 0,0 l/m 3,8 km/h (1 Bft) NO 1,00 h 0,229 mm 2,1 UV-I 390 W/m 17,9 C 22,6 C 6,2 km/h (2 Bft) 97,60 %
28.08.2019 11:00 24,2 C 24,4 C 33,4 C 70 % 1016,1 hPa 0,0 l/m 3,6 km/h (1 Bft) NO 1,00 h 0,254 mm 3,4 UV-I 579 W/m 18,4 C 24,2 C 6,2 km/h (2 Bft) 98,12 %
28.08.2019 12:00 26,2 C 24,4 C 35,9 C 60 % 1015,7 hPa 0,0 l/m 3,0 km/h (1 Bft) N-NO 1,00 h 0,381 mm 3,6 UV-I 565 W/m 17,7 C 26,2 C 5,2 km/h (1 Bft) 97,29 %
28.08.2019 13:00 27,0 C 24,4 C 34,0 C 55 % 1015,5 hPa 0,0 l/m 3,4 km/h (1 Bft) NO 0,93 h 0,381 mm 3,1 UV-I 477 W/m 17,3 C 27,0 C 5,4 km/h (1 Bft) 96,85 %
28.08.2019 14:00 27,9 C 24,9 C 35,0 C 51 % 1015,1 hPa 0,0 l/m 2,8 km/h (1 Bft) N-NO 1,00 h 0,330 mm 2,9 UV-I 490 W/m 16,8 C 27,9 C 4,9 km/h (1 Bft) 97,66 %
28.08.2019 15:00 28,4 C 25,0 C 33,5 C 48 % 1014,7 hPa 0,0 l/m 3,5 km/h (1 Bft) N-NO 0,83 h 0,355 mm 2,2 UV-I 409 W/m 16,3 C 28,4 C 5,4 km/h (1 Bft) 98,41 %
28.08.2019 16:00 29,2 C 25,0 C 34,7 C 47 % 1014,2 hPa 0,0 l/m 4,6 km/h (1 Bft) NO 1,02 h 0,305 mm 1,8 UV-I 452 W/m 16,6 C 29,2 C 7,3 km/h (2 Bft) 95,31 %
28.08.2019 17:00 29,1 C 25,0 C 31,2 C 46 % 1014,0 hPa 0,0 l/m 5,1 km/h (1 Bft) O 0,67 h 0,356 mm 0,8 UV-I 252 W/m 16,4 C 29,1 C 8,0 km/h (2 Bft) 99,54 %
28.08.2019 18:00 28,4 C 25,0 C 28,6 C 50 % 1013,8 hPa 0,0 l/m 4,9 km/h (1 Bft) NO 0,98 h 0,228 mm 0,5 UV-I 181 W/m 17,0 C 28,4 C 6,8 km/h (2 Bft) 97,29 %
28.08.2019 19:00 26,5 C 25,0 C 23,8 C 59 % 1013,5 hPa 0,0 l/m 3,8 km/h (1 Bft) NO 0,72 h 0,178 mm 0,0 UV-I 43 W/m 17,7 C 26,5 C 5,1 km/h (1 Bft) 96,80 %
28.08.2019 20:00 23,7 C 25,0 C 19,3 C 69 % 1013,6 hPa 0,0 l/m 1,1 km/h (0 Bft) O-NO 0,00 h 0,051 mm 0,0 UV-I 5 W/m 17,6 C 23,7 C 2,0 km/h (1 Bft) 97,16 %
28.08.2019 21:00 21,8 C 25,0 C 18,6 C 74 % 1013,8 hPa 0,0 l/m 1,2 km/h (1 Bft) O-NO 0,00 h 0,025 mm 0,0 UV-I 0 W/m 16,9 C 21,8 C 1,9 km/h (1 Bft) 98,26 %
28.08.2019 22:00 20,2 C 25,0 C 17,9 C 78 % 1014,0 hPa 0,0 l/m 2,8 km/h (1 Bft) S 0,00 h 0,000 mm 0,0 UV-I 0 W/m 16,3 C 20,2 C 3,9 km/h (1 Bft) 96,83 %
28.08.2019 23:00 19,4 C 24,4 C 17,2 C 82 % 1014,1 hPa 0,0 l/m 2,5 km/h (1 Bft) S-SW 0,00 h 0,026 mm 0,0 UV-I 0 W/m 16,2 C 19,4 C 3,5 km/h (1 Bft) 97,25 %
29.08.2019 00:00 18,9 C 24,4 C 17,1 C 85 % 1014,1 hPa 0,0 l/m 4,4 km/h (1 Bft) S-SW 0,00 h 0,000 mm 0,0 UV-I 0 W/m 16,4 C 18,9 C 5,9 km/h (2 Bft) 97,27 %
29.08.2019 01:00 18,6 C 24,4 C 17,0 C 87 % 1014,3 hPa 0,0 l/m 4,1 km/h (1 Bft) SW 0,00 h 0,025 mm 0,0 UV-I 0 W/m 16,5 C 18,6 C 5,8 km/h (2 Bft) 98,12 %
29.08.2019 02:00 18,0 C 24,4 C 16,7 C 90 % 1014,4 hPa 0,0 l/m 5,0 km/h (1 Bft) S-SW 0,00 h 0,000 mm 0,0 UV-I 0 W/m 16,4 C 17,9 C 7,1 km/h (2 Bft) 97,80 %
29.08.2019 03:00 18,0 C 24,4 C 17,2 C 91 % 1015,0 hPa 0,0 l/m 6,6 km/h (2 Bft) SW 0,00 h 0,000 mm 0,0 UV-I 0 W/m 16,4 C 17,7 C 10,0 km/h (2 Bft) 96,71 %
29.08.2019 04:00 18,2 C 24,2 C 17,4 C 90 % 1015,1 hPa 0,0 l/m 8,3 km/h (2 Bft) SW 0,00 h 0,000 mm 0,0 UV-I 0 W/m 16,5 C 17,3 C 12,5 km/h (3 Bft) 97,60 %
29.08.2019 05:00 18,5 C 23,9 C 17,6 C 89 % 1015,7 hPa 0,0 l/m 8,0 km/h (2 Bft) W-SW 0,00 h 0,026 mm 0,0 UV-I 0 W/m 16,6 C 17,7 C 12,3 km/h (3 Bft) 98,76 %
29.08.2019 06:00 19,4 C 23,9 C 18,9 C 86 % 1016,4 hPa 0,0 l/m 9,9 km/h (2 Bft) W 0,27 h 0,025 mm 0,0 UV-I 26 W/m 17,0 C 18,0 C 15,2 km/h (3 Bft) 96,24 %
29.08.2019 07:00 20,2 C 23,9 C 20,8 C 82 % 1016,7 hPa 0,0 l/m 4,1 km/h (1 Bft) W 0,43 h 0,026 mm 0,0 UV-I 106 W/m 17,1 C 20,2 C 6,3 km/h (2 Bft) 96,27 %
29.08.2019 08:00 21,8 C 23,9 C 24,1 C 76 % 1016,7 hPa 0,0 l/m 4,1 km/h (1 Bft) W 1,00 h 0,076 mm 0,8 UV-I 313 W/m 17,5 C 21,8 C 7,4 km/h (2 Bft) 97,72 %
29.08.2019 09:00 23,4 C 23,9 C 26,8 C 71 % 1016,8 hPa 0,0 l/m 7,2 km/h (2 Bft) W-SW 0,87 h 0,203 mm 1,4 UV-I 395 W/m 17,9 C 23,0 C 11,9 km/h (2 Bft) 98,17 %
29.08.2019 10:00 24,2 C 23,9 C 30,5 C 67 % 1017,0 hPa 0,0 l/m 6,6 km/h (2 Bft) W 1,00 h 0,279 mm 2,2 UV-I 465 W/m 17,8 C 24,0 C 11,5 km/h (2 Bft) 95,64 %
29.08.2019 11:00 24,9 C 23,9 C 32,6 C 65 % 1017,3 hPa 0,0 l/m 7,9 km/h (2 Bft) W-SW 1,00 h 0,331 mm 3,0 UV-I 521 W/m 17,8 C 24,5 C 14,3 km/h (3 Bft) 97,40 %
29.08.2019 12:00 25,4 C 24,3 C 32,2 C 61 % 1017,3 hPa 0,0 l/m 7,6 km/h (2 Bft) W 0,90 h 0,355 mm 3,3 UV-I 495 W/m 17,4 C 25,1 C 14,9 km/h (3 Bft) 96,39 %
29.08.2019 13:00 25,8 C 24,4 C 33,1 C 60 % 1017,5 hPa 0,0 l/m 7,3 km/h (2 Bft) W-NW 1,00 h 0,356 mm 3,4 UV-I 561 W/m 17,3 C 25,5 C 15,1 km/h (3 Bft) 98,57 %
29.08.2019 14:00 26,4 C 24,4 C 33,9 C 56 % 1017,5 hPa 0,0 l/m 7,4 km/h (2 Bft) W 1,00 h 0,406 mm 3,3 UV-I 539 W/m 16,9 C 26,2 C 15,5 km/h (3 Bft) 96,51 %
29.08.2019 15:00 26,3 C 25,0 C 32,3 C 57 % 1017,3 hPa 0,0 l/m 10,4 km/h (2 Bft) W-SW 0,80 h 0,407 mm 2,4 UV-I 440 W/m 17,1 C 25,6 C 18,8 km/h (3 Bft) 96,84 %
29.08.2019 16:00 25,3 C 25,0 C 27,9 C 58 % 1017,3 hPa 0,0 l/m 11,5 km/h (2 Bft) W 0,17 h 0,355 mm 1,3 UV-I 241 W/m 16,5 C 24,2 C 18,4 km/h (3 Bft) 97,41 %
29.08.2019 17:00 24,5 C 25,0 C 25,3 C 59 % 1017,6 hPa 0,0 l/m 9,3 km/h (2 Bft) W 0,00 h 0,229 mm 0,6 UV-I 126 W/m 16,0 C 23,8 C 15,4 km/h (3 Bft) 98,38 %
29.08.2019 18:00 23,7 C 24,7 C 24,5 C 66 % 1017,9 hPa 0,0 l/m 10,9 km/h (2 Bft) W-SW 0,40 h 0,152 mm 0,0 UV-I 110 W/m 16,9 C 22,6 C 17,7 km/h (3 Bft) 95,99 %
29.08.2019 19:00 23,0 C 24,4 C 22,9 C 71 % 1018,3 hPa 0,0 l/m 8,6 km/h (2 Bft) SW 0,47 h 0,127 mm 0,0 UV-I 31 W/m 17,5 C 22,3 C 14,1 km/h (3 Bft) 97,79 %
29.08.2019 20:00 22,0 C 24,4 C 21,3 C 77 % 1018,6 hPa 0,0 l/m 7,7 km/h (2 Bft) SW 0,00 h 0,051 mm 0,0 UV-I 3 W/m 17,6 C 21,5 C 11,9 km/h (2 Bft) 97,24 %
29.08.2019 21:00 21,8 C 24,4 C 21,8 C 76 % 1019,3 hPa 0,0 l/m 6,4 km/h (2 Bft) S-SW 0,00 h 0,025 mm 0,0 UV-I 0 W/m 17,5 C 21,6 C 10,1 km/h (2 Bft) 97,87 %
29.08.2019 22:00 20,8 C 24,3 C 20,6 C 79 % 1020,2 hPa 4,6 l/m 12,4 km/h (3 Bft) NO 0,00 h 0,026 mm 0,0 UV-I 0 W/m 17,0 C 19,0 C 17,2 km/h (3 Bft) 95,95 %
29.08.2019 23:00 18,4 C 24,3 C 18,4 C 93 % 1020,4 hPa 6,2 l/m 7,4 km/h (2 Bft) S-SO 0,00 h 0,051 mm 0,0 UV-I 0 W/m 17,2 C 17,8 C 11,8 km/h (2 Bft) 96,68 %
30.08.2019 00:00 18,2 C 23,9 C 17,8 C 95 % 1020,4 hPa 0,2 l/m 1,8 km/h (1 Bft) S 0,00 h 0,000 mm 0,0 UV-I 0 W/m 17,3 C 18,2 C 3,4 km/h (1 Bft) 96,78 %
30.08.2019 01:00 17,8 C 23,9 C 17,7 C 96 % 1020,4 hPa 0,0 l/m 1,2 km/h (1 Bft) SW 0,00 h 0,000 mm 0,0 UV-I 0 W/m 17,2 C 17,8 C 2,1 km/h (1 Bft) 98,98 %
30.08.2019 02:00 17,6 C 23,9 C 17,4 C 97 % 1020,0 hPa 0,0 l/m 1,8 km/h (1 Bft) S-SW 0,00 h 0,000 mm 0,0 UV-I 0 W/m 17,1 C 17,6 C 3,1 km/h (1 Bft) 96,06 %
30.08.2019 03:00 17,3 C 23,9 C 17,1 C 97 % 1020,0 hPa 0,0 l/m 2,3 km/h (1 Bft) S-SO 0,00 h 0,000 mm 0,0 UV-I 0 W/m 16,8 C 17,3 C 3,9 km/h (1 Bft) 97,29 %
30.08.2019 04:00 17,4 C 23,9 C 17,8 C 97 % 1020,1 hPa 0,0 l/m 1,6 km/h (1 Bft) S-SO 0,00 h 0,000 mm 0,0 UV-I 0 W/m 16,9 C 17,4 C 2,8 km/h (1 Bft) 97,94 %
30.08.2019 05:00 17,4 C 23,9 C 17,8 C 97 % 1020,2 hPa 0,0 l/m 2,4 km/h (1 Bft) S-SO 0,00 h 0,000 mm 0,0 UV-I 0 W/m 16,9 C 17,4 C 4,2 km/h (1 Bft) 98,48 %
30.08.2019 06:00 17,4 C 23,9 C 17,8 C 97 % 1020,7 hPa 0,0 l/m 2,0 km/h (1 Bft) S-SW 0,00 h 0,000 mm 0,0 UV-I 7 W/m 17,0 C 17,4 C 3,3 km/h (1 Bft) 95,33 %
30.08.2019 07:00 17,6 C 23,9 C 18,1 C 97 % 1021,1 hPa 0,0 l/m 1,9 km/h (1 Bft) NO 0,00 h 0,000 mm 0,0 UV-I 24 W/m 17,1 C 17,6 C 3,1 km/h (1 Bft) 98,15 %
30.08.2019 08:00 17,9 C 23,4 C 18,9 C 97 % 1021,4 hPa 0,0 l/m 1,3 km/h (1 Bft) O-NO 0,00 h 0,025 mm 0,2 UV-I 57 W/m 17,4 C 17,9 C 2,4 km/h (1 Bft) 97,65 %
30.08.2019 09:00 18,4 C 23,3 C 19,6 C 97 % 1021,5 hPa 0,2 l/m 1,1 km/h (1 Bft) S-SO 0,00 h 0,026 mm 0,5 UV-I 81 W/m 17,9 C 18,4 C 2,5 km/h (1 Bft) 97,92 %
30.08.2019 10:00 19,1 C 23,3 C 21,2 C 96 % 1021,6 hPa 0,2 l/m 1,6 km/h (1 Bft) S-SO 0,00 h 0,051 mm 1,1 UV-I 182 W/m 18,4 C 19,1 C 3,1 km/h (1 Bft) 95,48 %
30.08.2019 11:00 20,4 C 23,9 C 23,9 C 91 % 1021,7 hPa 0,0 l/m 2,3 km/h (1 Bft) N 0,27 h 0,101 mm 2,4 UV-I 363 W/m 18,8 C 20,4 C 4,0 km/h (1 Bft) 98,22 %
30.08.2019 12:00 21,7 C 23,9 C 27,8 C 86 % 1021,6 hPa 0,0 l/m 3,4 km/h (1 Bft) N-NO 0,37 h 0,203 mm 3,0 UV-I 398 W/m 19,3 C 21,7 C 5,4 km/h (1 Bft) 97,63 %
30.08.2019 13:00 22,6 C 23,9 C 28,0 C 82 % 1021,3 hPa 0,0 l/m 3,1 km/h (1 Bft) N-NO 0,03 h 0,229 mm 3,0 UV-I 378 W/m 19,3 C 22,6 C 4,8 km/h (1 Bft) 97,95 %
30.08.2019 14:00 24,2 C 23,9 C 34,6 C 73 % 1020,7 hPa 0,0 l/m 2,8 km/h (1 Bft) O 1,00 h 0,229 mm 3,6 UV-I 615 W/m 19,1 C 24,2 C 5,3 km/h (1 Bft) 96,64 %
30.08.2019 15:00 25,6 C 24,4 C 36,7 C 66 % 1020,0 hPa 0,0 l/m 5,3 km/h (1 Bft) O-SO 1,00 h 0,381 mm 2,8 UV-I 621 W/m 18,7 C 25,6 C 9,6 km/h (2 Bft) 95,94 %
30.08.2019 16:00 26,5 C 24,4 C 33,6 C 65 % 1019,5 hPa 0,0 l/m 4,0 km/h (1 Bft) O-NO 1,00 h 0,406 mm 1,9 UV-I 515 W/m 19,3 C 26,5 C 7,2 km/h (2 Bft) 98,75 %
30.08.2019 17:00 26,3 C 24,4 C 27,6 C 63 % 1019,0 hPa 0,0 l/m 4,2 km/h (1 Bft) O 1,00 h 0,356 mm 0,9 UV-I 288 W/m 18,7 C 26,3 C 7,6 km/h (2 Bft) 96,48 %
30.08.2019 18:00 25,8 C 24,4 C 25,5 C 64 % 1018,9 hPa 0,0 l/m 4,7 km/h (1 Bft) O 1,00 h 0,203 mm 0,4 UV-I 151 W/m 18,4 C 25,7 C 7,3 km/h (2 Bft) 96,15 %
30.08.2019 19:00 23,8 C 24,4 C 22,2 C 72 % 1019,0 hPa 0,0 l/m 2,5 km/h (1 Bft) SO 0,67 h 0,127 mm 0,0 UV-I 37 W/m 18,3 C 23,8 C 4,1 km/h (1 Bft) 97,01 %
30.08.2019 20:00 21,2 C 24,4 C 18,8 C 84 % 1019,3 hPa 0,0 l/m 1,0 km/h (0 Bft) SO 0,00 h 0,051 mm 0,0 UV-I 5 W/m 18,4 C 21,2 C 2,0 km/h (1 Bft) 98,52 %
30.08.2019 21:00 20,0 C 24,4 C 17,9 C 86 % 1019,3 hPa 0,0 l/m 1,0 km/h (0 Bft) SO 0,00 h 0,000 mm 0,0 UV-I 0 W/m 17,6 C 20,0 C 1,9 km/h (1 Bft) 96,97 %
30.08.2019 22:00 18,9 C 24,4 C 17,1 C 86 % 1019,4 hPa 0,0 l/m 0,6 km/h (0 Bft) SO 0,00 h 0,000 mm 0,0 UV-I 0 W/m 16,6 C 18,9 C 1,3 km/h (1 Bft) 96,74 %
30.08.2019 23:00 18,2 C 24,4 C 16,8 C 90 % 1019,1 hPa 0,0 l/m 1,4 km/h (1 Bft) SO 0,00 h 0,000 mm 0,0 UV-I 0 W/m 16,6 C 18,2 C 2,3 km/h (1 Bft) 96,94 %
31.08.2019 00:00 17,7 C 23,9 C 16,5 C 92 % 1018,8 hPa 0,0 l/m 2,3 km/h (1 Bft) SO 0,00 h 0,000 mm 0,0 UV-I 0 W/m 16,3 C 17,7 C 3,5 km/h (1 Bft) 98,16 %
31.08.2019 01:00 17,3 C 23,9 C 15,8 C 93 % 1018,5 hPa 0,0 l/m 1,5 km/h (1 Bft) S 0,00 h 0,000 mm 0,0 UV-I 0 W/m 16,1 C 17,3 C 2,5 km/h (1 Bft) 97,12 %
31.08.2019 02:00 16,6 C 23,9 C 15,2 C 95 % 1018,1 hPa 0,0 l/m 1,3 km/h (1 Bft) S 0,00 h 0,000 mm 0,0 UV-I 0 W/m 15,7 C 16,6 C 2,1 km/h (1 Bft) 96,15 %
31.08.2019 03:00 16,0 C 23,9 C 14,4 C 95 % 1017,7 hPa 0,0 l/m 1,2 km/h (1 Bft) S 0,00 h 0,000 mm 0,0 UV-I 0 W/m 15,3 C 16,0 C 1,9 km/h (1 Bft) 97,89 %
31.08.2019 04:00 15,5 C 23,9 C 13,9 C 96 % 1017,3 hPa 0,0 l/m 0,9 km/h (0 Bft) S-SW 0,00 h 0,000 mm 0,0 UV-I 0 W/m 14,9 C 15,5 C 1,3 km/h (1 Bft) 97,59 %
31.08.2019 05:00 15,2 C 23,3 C 13,3 C 96 % 1017,0 hPa 0,0 l/m 1,5 km/h (1 Bft) S-SW 0,00 h 0,000 mm 0,0 UV-I 0 W/m 14,6 C 15,2 C 2,6 km/h (1 Bft) 95,61 %
31.08.2019 06:00 15,2 C 23,3 C 15,1 C 97 % 1017,0 hPa 0,0 l/m 1,7 km/h (1 Bft) O-SO 0,07 h 0,000 mm 0,0 UV-I 15 W/m 14,7 C 15,2 C 3,0 km/h (1 Bft) 97,31 %
31.08.2019 07:00 15,9 C 23,3 C 17,0 C 97 % 1016,8 hPa 0,0 l/m 4,4 km/h (1 Bft) O 0,00 h 0,000 mm 0,0 UV-I 78 W/m 15,5 C 15,9 C 6,7 km/h (2 Bft) 98,33 %
31.08.2019 08:00 16,8 C 23,3 C 19,3 C 97 % 1016,6 hPa 0,0 l/m 3,0 km/h (1 Bft) O-SO 0,77 h 0,051 mm 0,8 UV-I 237 W/m 16,4 C 16,8 C 5,2 km/h (1 Bft) 96,43 %
31.08.2019 09:00 19,7 C 23,5 C 21,2 C 90 % 1016,3 hPa 0,0 l/m 6,1 km/h (2 Bft) O 1,00 h 0,127 mm 1,6 UV-I 441 W/m 17,9 C 19,5 C 9,5 km/h (2 Bft) 95,75 %
31.08.2019 10:00 22,4 C 23,9 C 31,9 C 80 % 1015,8 hPa 0,0 l/m 6,0 km/h (2 Bft) O 1,00 h 0,254 mm 2,6 UV-I 565 W/m 18,8 C 22,3 C 9,6 km/h (2 Bft) 98,19 %
31.08.2019 11:00 25,1 C 23,9 C 37,7 C 71 % 1015,4 hPa 0,0 l/m 7,8 km/h (2 Bft) O 1,00 h 0,355 mm 3,5 UV-I 675 W/m 19,5 C 24,8 C 12,9 km/h (3 Bft) 98,02 %
31.08.2019 12:00 27,2 C 23,9 C 38,6 C 64 % 1014,8 hPa 0,0 l/m 9,2 km/h (2 Bft) O 1,00 h 0,458 mm 4,1 UV-I 712 W/m 19,7 C 26,7 C 14,0 km/h (3 Bft) 96,24 %
31.08.2019 13:00 28,7 C 24,4 C 39,5 C 57 % 1014,1 hPa 0,0 l/m 10,2 km/h (2 Bft) O-NO 1,00 h 0,508 mm 4,2 UV-I 720 W/m 19,4 C 28,3 C 15,7 km/h (3 Bft) 97,74 %
31.08.2019 14:00 29,8 C 24,5 C 39,3 C 51 % 1013,2 hPa 0,0 l/m 11,6 km/h (2 Bft) NO 1,00 h 0,533 mm 3,6 UV-I 663 W/m 18,7 C 29,4 C 16,9 km/h (3 Bft) 97,64 %
31.08.2019 15:00 30,3 C 25,0 C 37,0 C 51 % 1012,3 hPa 0,0 l/m 11,9 km/h (2 Bft) NO 1,00 h 0,533 mm 2,7 UV-I 560 W/m 18,8 C 29,9 C 17,3 km/h (3 Bft) 97,03 %
31.08.2019 16:00 29,7 C 25,0 C 31,5 C 52 % 1011,5 hPa 0,0 l/m 11,8 km/h (2 Bft) NO 0,90 h 0,483 mm 1,5 UV-I 357 W/m 18,6 C 29,2 C 17,0 km/h (3 Bft) 96,69 %
31.08.2019 17:00 29,1 C 25,0 C 29,0 C 53 % 1010,8 hPa 0,0 l/m 10,8 km/h (2 Bft) NO 0,63 h 0,330 mm 0,8 UV-I 228 W/m 18,4 C 28,7 C 15,7 km/h (3 Bft) 97,79 %
31.08.2019 18:00 27,6 C 25,0 C 26,2 C 55 % 1010,4 hPa 0,0 l/m 7,1 km/h (2 Bft) O 0,33 h 0,229 mm 0,0 UV-I 85 W/m 17,8 C 27,5 C 11,0 km/h (2 Bft) 97,66 %
31.08.2019 19:00 26,2 C 25,0 C 22,8 C 59 % 1010,4 hPa 0,0 l/m 3,9 km/h (1 Bft) O-SO 0,50 h 0,127 mm 0,0 UV-I 30 W/m 17,4 C 26,2 C 5,9 km/h (2 Bft) 95,34 %
31.08.2019 20:00 22,8 C 25,0 C 19,9 C 72 % 1010,5 hPa 0,0 l/m 3,0 km/h (1 Bft) S-SO 0,00 h 0,051 mm 0,0 UV-I 4 W/m 17,4 C 22,8 C 4,5 km/h (1 Bft) 97,35 %
31.08.2019 21:00 21,9 C 24,9 C 19,2 C 73 % 1010,7 hPa 0,0 l/m 2,1 km/h (1 Bft) S-SO 0,00 h 0,025 mm 0,0 UV-I 0 W/m 16,8 C 21,9 C 4,0 km/h (1 Bft) 98,38 %
31.08.2019 22:00 20,4 C 24,4 C 18,1 C 80 % 1010,8 hPa 0,0 l/m 1,1 km/h (0 Bft) S-SO 0,00 h 0,025 mm 0,0 UV-I 0 W/m 16,7 C 20,4 C 2,7 km/h (1 Bft) 96,98 %
31.08.2019 23:00 19,5 C 24,4 C 17,4 C 80 % 1010,7 hPa 0,0 l/m 2,1 km/h (1 Bft) S-SO 0,00 h 0,000 mm 0,0 UV-I 0 W/m 16,0 C 19,5 C 4,5 km/h (1 Bft) 96,42 %
01.09.2019 00:00 18,7 C 24,4 C 16,9 C 82 % 1010,6 hPa 0,0 l/m 2,3 km/h (1 Bft) S-SW 0,00 h 0,000 mm 0,0 UV-I 0 W/m 15,6 C 18,7 C 4,1 km/h (1 Bft) 97,06 %
01.09.2019 01:00 18,1 C 24,4 C 16,6 C 83 % 1010,5 hPa 0,0 l/m 3,3 km/h (1 Bft) S 0,00 h 0,000 mm 0,0 UV-I 0 W/m 15,2 C 18,1 C 4,7 km/h (1 Bft) 98,24 %
01.09.2019 02:00 17,4 C 24,4 C 16,3 C 86 % 1010,5 hPa 0,0 l/m 2,9 km/h (1 Bft) S-SW 0,00 h 0,000 mm 0,0 UV-I 0 W/m 15,1 C 17,4 C 4,1 km/h (1 Bft) 95,50 %
01.09.2019 03:00 17,2 C 24,2 C 15,9 C 88 % 1010,6 hPa 0,0 l/m 1,7 km/h (1 Bft) S-SW 0,00 h 0,000 mm 0,0 UV-I 0 W/m 15,2 C 17,2 C 2,5 km/h (1 Bft) 98,18 %
01.09.2019 04:00 17,4 C 23,9 C 16,4 C 86 % 1010,5 hPa 0,0 l/m 4,5 km/h (1 Bft) S-SW 0,00 h 0,000 mm 0,0 UV-I 0 W/m 15,0 C 17,4 C 6,3 km/h (2 Bft) 97,13 %
01.09.2019 05:00 17,4 C 23,9 C 16,4 C 84 % 1010,5 hPa 0,0 l/m 4,7 km/h (1 Bft) S-SW 0,00 h 0,000 mm 0,0 UV-I 0 W/m 14,7 C 17,4 C 6,7 km/h (2 Bft) 98,26 %
01.09.2019 06:00 17,7 C 23,9 C 17,2 C 83 % 1010,5 hPa 0,0 l/m 5,1 km/h (1 Bft) S-SW 0,47 h 0,000 mm 0,0 UV-I 22 W/m 14,8 C 17,7 C 7,3 km/h (2 Bft) 95,03 %
01.09.2019 07:00 19,0 C 23,9 C 19,9 C 81 % 1010,7 hPa 0,0 l/m 4,1 km/h (1 Bft) SW 0,40 h 0,000 mm 0,0 UV-I 86 W/m 15,6 C 19,0 C 6,5 km/h (2 Bft) 97,64 %
01.09.2019 08:00 20,2 C 23,9 C 22,1 C 78 % 1010,8 hPa 0,0 l/m 4,2 km/h (1 Bft) SW 0,50 h 0,000 mm 0,7 UV-I 191 W/m 16,3 C 20,2 C 6,3 km/h (2 Bft) 97,18 %
01.09.2019 09:00 22,5 C 23,9 C 26,1 C 72 % 1011,2 hPa 0,0 l/m 4,8 km/h (1 Bft) W-SW 0,70 h 0,254 mm 1,2 UV-I 356 W/m 17,3 C 22,5 C 7,8 km/h (2 Bft) 98,82 %
01.09.2019 10:00 22,9 C 23,9 C 26,3 C 73 % 1011,3 hPa 0,0 l/m 4,1 km/h (1 Bft) W-SW 0,00 h 0,229 mm 1,4 UV-I 243 W/m 17,8 C 22,9 C 6,6 km/h (2 Bft) 95,55 %
01.09.2019 11:00 24,1 C 23,9 C 28,2 C 68 % 1011,2 hPa 0,0 l/m 4,3 km/h (1 Bft) W-SW 0,03 h 0,177 mm 1,8 UV-I 305 W/m 17,8 C 24,1 C 6,8 km/h (2 Bft) 97,61 %
01.09.2019 12:00 25,5 C 23,9 C 31,9 C 62 % 1011,2 hPa 0,0 l/m 4,3 km/h (1 Bft) SW 0,30 h 0,204 mm 2,8 UV-I 411 W/m 17,6 C 25,5 C 7,4 km/h (2 Bft) 97,77 %
01.09.2019 13:00 26,3 C 24,0 C 32,7 C 59 % 1011,1 hPa 0,0 l/m 5,1 km/h (1 Bft) W-NW 0,40 h 0,279 mm 3,2 UV-I 494 W/m 17,5 C 26,3 C 11,1 km/h (2 Bft) 98,44 %
01.09.2019 14:00 27,7 C 24,4 C 38,8 C 53 % 1010,5 hPa 0,0 l/m 5,9 km/h (2 Bft) W-NW 1,00 h 0,356 mm 3,8 UV-I 685 W/m 17,2 C 27,7 C 12,3 km/h (3 Bft) 95,33 %
01.09.2019 15:00 27,9 C 24,5 C 37,0 C 50 % 1010,4 hPa 0,0 l/m 7,1 km/h (2 Bft) W 1,00 h 0,482 mm 2,8 UV-I 581 W/m 16,6 C 27,7 C 14,4 km/h (3 Bft) 99,36 %
01.09.2019 16:00 27,9 C 25,0 C 31,0 C 51 % 1010,0 hPa 0,0 l/m 4,6 km/h (1 Bft) N 0,97 h 0,432 mm 1,7 UV-I 423 W/m 16,8 C 27,9 C 8,6 km/h (2 Bft) 97,04 %
01.09.2019 17:00 27,5 C 25,0 C 27,5 C 53 % 1009,7 hPa 0,0 l/m 3,2 km/h (1 Bft) W-NW 1,00 h 0,305 mm 0,8 UV-I 287 W/m 17,1 C 27,5 C 6,0 km/h (2 Bft) 97,84 %
01.09.2019 18:00 26,2 C 25,0 C 25,6 C 55 % 1009,8 hPa 0,0 l/m 6,6 km/h (2 Bft) W 0,63 h 0,203 mm 0,3 UV-I 124 W/m 16,5 C 25,7 C 11,3 km/h (2 Bft) 97,15 %
01.09.2019 19:00 22,2 C 24,9 C 22,0 C 67 % 1010,5 hPa 0,0 l/m 14,3 km/h (3 Bft) S 0,10 h 0,127 mm 0,0 UV-I 21 W/m 15,8 C 20,1 C 23,1 km/h (4 Bft) 98,27 %
01.09.2019 20:00 19,5 C 24,5 C 18,4 C 82 % 1011,0 hPa 0,2 l/m 14,7 km/h (3 Bft) S 0,00 h 0,076 mm 0,0 UV-I 0 W/m 16,2 C 16,7 C 22,2 km/h (4 Bft) 98,20 %
01.09.2019 21:00 18,5 C 24,4 C 17,8 C 88 % 1011,7 hPa 0,6 l/m 13,9 km/h (3 Bft) SW 0,00 h 0,051 mm 0,0 UV-I 0 W/m 16,5 C 15,8 C 21,0 km/h (4 Bft) 95,78 %
01.09.2019 22:00 17,7 C 24,4 C 17,2 C 91 % 1013,0 hPa 3,6 l/m 17,2 km/h (3 Bft) W-SW 0,00 h 0,025 mm 0,0 UV-I 0 W/m 16,2 C 13,9 C 26,0 km/h (4 Bft) 97,71 %
01.09.2019 23:00 17,1 C 24,3 C 17,2 C 94 % 1013,1 hPa 3,4 l/m 15,0 km/h (3 Bft) SW 0,00 h 0,026 mm 0,0 UV-I 0 W/m 16,2 C 13,8 C 22,3 km/h (4 Bft) 98,97 %
Min-Datum _ 31.08.19 26.08.19 31.08.19 27.08.19 01.09.19 - 26.08.19 - - - - - 28.08.19 01.09.19 26.08.19 28.08.19
_ Min-Zeit 06:14 06:54 05:34 16:40 17:14 - 02:18 - - - - - 06:18 23:28 02:20 16:40
Minimum _ 14,4 C 22,8 C 12,8 C 39 % 1009,7 hPa - 0,0 km/h (0 Bft) - - - - - 13,7 C 12,6 C 0,0 km/h (0 Bft) 83,33 %
Max-Datum _ 31.08.19 27.08.19 27.08.19 31.08.19 30.08.19 29.08.19 29.08.19 - 01.09.19 26.08.19 27.08.19 01.09.19 31.08.19 31.08.19 01.09.19 26.08.19
_ Max-Zeit 15:32 16:32 13:46 08:06 11:46 23:02 22:44 - 09:44 14:00 12:56 13:48 13:16 15:30 22:06 00:00
Maximum _ 30,6 C 25,6 C 41,7 C 98 % 1021,8 hPa 6,2 l/m 23,5 km/h
NO (4 Bft)
- 0,07 h 0,533 mm 4,7 UV-I 895 W/m 20,7 C 30,3 C 37,0 km/h
SW (5 Bft)
100,00 %
Durchschnitt _ 21,9 C 24,2 C 23,8 C 76 % 1015,7 hPa #19,2 l/m 5,0 km/h (1 Bft) S-SW #71:00 h #25,502 mm 2,2 UV-I 329 W/m 17,0 C 21,6 C 8,0 km/h (2 Bft) 97,34 %